sensor_id;sensor_type;location;lat;lon;timestamp;pressure;altitude;pressure_sealevel;temperature;humidity
35443;BME280;21561;55.654;37.592;2024-01-06T00:01:16;98889.81;;;-19.11;84.63
35443;BME280;21561;55.654;37.592;2024-01-06T00:03:43;98882.25;;;-19.12;84.89
35443;BME280;21561;55.654;37.592;2024-01-06T00:06:15;98879.91;;;-19.11;84.88
35443;BME280;21561;55.654;37.592;2024-01-06T00:08:43;98879.31;;;-19.08;85.15
35443;BME280;21561;55.654;37.592;2024-01-06T00:11:10;98875.25;;;-19.08;84.86
35443;BME280;21561;55.654;37.592;2024-01-06T00:13:37;98881.66;;;-19.10;85.20
35443;BME280;21561;55.654;37.592;2024-01-06T00:16:04;98867.56;;;-19.11;85.31
35443;BME280;21561;55.654;37.592;2024-01-06T00:18:31;98860.41;;;-19.08;85.62
35443;BME280;21561;55.654;37.592;2024-01-06T00:20:58;98862.59;;;-19.02;85.42
35443;BME280;21561;55.654;37.592;2024-01-06T00:23:25;98862.88;;;-18.99;85.72
35443;BME280;21561;55.654;37.592;2024-01-06T00:25:52;98863.75;;;-18.98;85.31
35443;BME280;21561;55.654;37.592;2024-01-06T00:28:19;98869.88;;;-19.03;85.20
35443;BME280;21561;55.654;37.592;2024-01-06T00:30:46;98872.63;;;-19.09;85.45
35443;BME280;21561;55.654;37.592;2024-01-06T00:33:13;98869.72;;;-19.14;85.84
35443;BME280;21561;55.654;37.592;2024-01-06T00:35:40;98858.53;;;-19.19;85.96
35443;BME280;21561;55.654;37.592;2024-01-06T00:38:07;98862.59;;;-19.19;86.21
35443;BME280;21561;55.654;37.592;2024-01-06T00:40:34;98872.66;;;-19.18;86.30
35443;BME280;21561;55.654;37.592;2024-01-06T00:43:00;98861.56;;;-19.13;86.62
35443;BME280;21561;55.654;37.592;2024-01-06T00:45:27;98859.53;;;-19.08;87.18
35443;BME280;21561;55.654;37.592;2024-01-06T00:47:54;98859.25;;;-19.02;86.98
35443;BME280;21561;55.654;37.592;2024-01-06T00:50:21;98867.69;;;-19.00;86.84
35443;BME280;21561;55.654;37.592;2024-01-06T00:52:48;98867.69;;;-19.00;87.07
35443;BME280;21561;55.654;37.592;2024-01-06T00:55:19;98865.19;;;-19.00;87.11
35443;BME280;21561;55.654;37.592;2024-01-06T00:57:47;98876.09;;;-18.98;87.05
35443;BME280;21561;55.654;37.592;2024-01-06T01:00:14;98880.19;;;-18.99;87.12
35443;BME280;21561;55.654;37.592;2024-01-06T01:02:41;98878.59;;;-18.98;86.69
35443;BME280;21561;55.654;37.592;2024-01-06T01:05:08;98877.72;;;-18.99;86.63
35443;BME280;21561;55.654;37.592;2024-01-06T01:07:35;98877.88;;;-18.97;86.96
35443;BME280;21561;55.654;37.592;2024-01-06T01:10:03;98876.25;;;-18.97;86.70
35443;BME280;21561;55.654;37.592;2024-01-06T01:12:31;98886.00;;;-18.98;87.14
35443;BME280;21561;55.654;37.592;2024-01-06T01:14:58;98879.63;;;-18.96;86.79
35443;BME280;21561;55.654;37.592;2024-01-06T01:17:25;98881.34;;;-18.95;86.95
35443;BME280;21561;55.654;37.592;2024-01-06T01:19:52;98880.63;;;-18.94;86.93
35443;BME280;21561;55.654;37.592;2024-01-06T01:22:19;98886.59;;;-18.92;87.32
35443;BME280;21561;55.654;37.592;2024-01-06T01:24:46;98880.50;;;-18.87;87.07
35443;BME280;21561;55.654;37.592;2024-01-06T01:27:13;98873.34;;;-18.84;87.21
35443;BME280;21561;55.654;37.592;2024-01-06T01:29:40;98881.06;;;-18.81;87.64
35443;BME280;21561;55.654;37.592;2024-01-06T01:32:07;98881.31;;;-18.78;87.30
35443;BME280;21561;55.654;37.592;2024-01-06T01:34:34;98877.53;;;-18.74;87.20
35443;BME280;21561;55.654;37.592;2024-01-06T01:37:01;98880.16;;;-18.73;87.58
35443;BME280;21561;55.654;37.592;2024-01-06T01:39:28;98886.56;;;-18.75;87.66
35443;BME280;21561;55.654;37.592;2024-01-06T01:41:55;98879.56;;;-18.79;87.20
35443;BME280;21561;55.654;37.592;2024-01-06T01:44:22;98883.66;;;-18.79;87.44
35443;BME280;21561;55.654;37.592;2024-01-06T01:46:49;98872.47;;;-18.85;86.64
35443;BME280;21561;55.654;37.592;2024-01-06T01:49:16;98873.47;;;-18.91;86.41
35443;BME280;21561;55.654;37.592;2024-01-06T01:51:44;98875.09;;;-19.00;86.36
35443;BME280;21561;55.654;37.592;2024-01-06T01:54:11;98864.19;;;-19.02;86.56
35443;BME280;21561;55.654;37.592;2024-01-06T01:56:39;98864.78;;;-19.05;86.65
35443;BME280;21561;55.654;37.592;2024-01-06T01:59:11;98862.47;;;-19.03;86.77
35443;BME280;21561;55.654;37.592;2024-01-06T02:01:42;98858.38;;;-19.03;86.63
35443;BME280;21561;55.654;37.592;2024-01-06T02:04:09;98855.75;;;-19.05;86.85
35443;BME280;21561;55.654;37.592;2024-01-06T02:06:36;98853.72;;;-19.09;86.61
35443;BME280;21561;55.654;37.592;2024-01-06T02:09:03;98858.69;;;-19.09;86.58
35443;BME280;21561;55.654;37.592;2024-01-06T02:11:30;98865.66;;;-19.05;87.28
35443;BME280;21561;55.654;37.592;2024-01-06T02:13:57;98871.16;;;-18.98;87.19
35443;BME280;21561;55.654;37.592;2024-01-06T02:16:24;98867.53;;;-19.02;86.81
35443;BME280;21561;55.654;37.592;2024-01-06T02:18:51;98864.19;;;-19.02;87.27
35443;BME280;21561;55.654;37.592;2024-01-06T02:21:21;98865.19;;;-19.00;87.64
35443;BME280;21561;55.654;37.592;2024-01-06T02:23:52;98880.78;;;-19.01;87.82
35443;BME280;21561;55.654;37.592;2024-01-06T02:26:19;98876.13;;;-19.07;87.84
35443;BME280;21561;55.654;37.592;2024-01-06T02:28:46;98883.09;;;-19.12;87.88
35443;BME280;21561;55.654;37.592;2024-01-06T02:31:14;98881.06;;;-19.16;88.20
35443;BME280;21561;55.654;37.592;2024-01-06T02:33:41;98881.63;;;-19.18;88.59
35443;BME280;21561;55.654;37.592;2024-01-06T02:36:08;98879.00;;;-19.20;88.63
35443;BME280;21561;55.654;37.592;2024-01-06T02:38:35;98879.75;;;-19.21;88.56
35443;BME280;21561;55.654;37.592;2024-01-06T02:41:02;98888.91;;;-19.20;88.55
35443;BME280;21561;55.654;37.592;2024-01-06T02:43:29;98883.84;;;-19.21;88.52
35443;BME280;21561;55.654;37.592;2024-01-06T02:45:56;98892.13;;;-19.21;88.91
35443;BME280;21561;55.654;37.592;2024-01-06T02:48:23;98895.31;;;-19.13;88.14
35443;BME280;21561;55.654;37.592;2024-01-06T02:50:50;98885.00;;;-19.18;88.62
35443;BME280;21561;55.654;37.592;2024-01-06T02:53:17;98882.81;;;-19.15;88.61
35443;BME280;21561;55.654;37.592;2024-01-06T02:55:45;98879.47;;;-19.15;88.13
35443;BME280;21561;55.654;37.592;2024-01-06T02:58:11;98877.84;;;-19.15;88.51
35443;BME280;21561;55.654;37.592;2024-01-06T03:00:38;98876.28;;;-19.14;88.40
35443;BME280;21561;55.654;37.592;2024-01-06T03:03:05;98877.28;;;-19.12;88.50
35443;BME280;21561;55.654;37.592;2024-01-06T03:05:33;98868.25;;;-19.12;88.48
35443;BME280;21561;55.654;37.592;2024-01-06T03:08:00;98871.03;;;-19.09;88.79
35443;BME280;21561;55.654;37.592;2024-01-06T03:10:27;98860.69;;;-19.05;88.96
35443;BME280;21561;55.654;37.592;2024-01-06T03:12:54;98862.72;;;-19.00;89.07
35443;BME280;21561;55.654;37.592;2024-01-06T03:15:21;98857.78;;;-19.00;88.99
35443;BME280;21561;55.654;37.592;2024-01-06T03:17:48;98872.63;;;-19.00;88.82
35443;BME280;21561;55.654;37.592;2024-01-06T03:20:15;98879.03;;;-19.02;88.63
35443;BME280;21561;55.654;37.592;2024-01-06T03:22:42;98869.13;;;-19.02;88.94
35443;BME280;21561;55.654;37.592;2024-01-06T03:25:09;98856.31;;;-18.98;88.59
35443;BME280;21561;55.654;37.592;2024-01-06T03:27:36;98860.56;;;-18.97;88.90
35443;BME280;21561;55.654;37.592;2024-01-06T03:30:03;98867.97;;;-18.97;88.82
35443;BME280;21561;55.654;37.592;2024-01-06T03:32:31;98867.13;;;-18.98;88.63
35443;BME280;21561;55.654;37.592;2024-01-06T03:34:58;98866.50;;;-19.04;88.38
35443;BME280;21561;55.654;37.592;2024-01-06T03:37:25;98871.75;;;-19.10;88.57
35443;BME280;21561;55.654;37.592;2024-01-06T03:39:52;98873.50;;;-19.09;88.79
35443;BME280;21561;55.654;37.592;2024-01-06T03:42:19;98883.66;;;-19.06;88.71
35443;BME280;21561;55.654;37.592;2024-01-06T03:44:46;98879.88;;;-19.02;88.41
35443;BME280;21561;55.654;37.592;2024-01-06T03:47:13;98885.72;;;-19.01;88.33
35443;BME280;21561;55.654;37.592;2024-01-06T03:49:40;98885.44;;;-19.05;88.39
35443;BME280;21561;55.654;37.592;2024-01-06T03:52:07;98878.59;;;-18.98;88.28
35443;BME280;21561;55.654;37.592;2024-01-06T03:54:34;98873.53;;;-19.00;88.64
35443;BME280;21561;55.654;37.592;2024-01-06T03:57:01;98870.28;;;-18.99;88.78
35443;BME280;21561;55.654;37.592;2024-01-06T03:59:27;98880.19;;;-18.99;89.13
35443;BME280;21561;55.654;37.592;2024-01-06T04:01:57;98876.09;;;-18.98;88.79
35443;BME280;21561;55.654;37.592;2024-01-06T04:04:24;98875.53;;;-18.96;88.99
35443;BME280;21561;55.654;37.592;2024-01-06T04:06:51;98873.47;;;-18.91;89.12
35443;BME280;21561;55.654;37.592;2024-01-06T04:09:18;98871.91;;;-18.91;89.15
35443;BME280;21561;55.654;37.592;2024-01-06T04:11:45;98873.63;;;-18.90;88.95
35443;BME280;21561;55.654;37.592;2024-01-06T04:14:12;98878.72;;;-18.88;89.20
35443;BME280;21561;55.654;37.592;2024-01-06T04:16:39;98874.09;;;-18.85;89.28
35443;BME280;21561;55.654;37.592;2024-01-06T04:19:06;98875.09;;;-18.83;88.97
35443;BME280;21561;55.654;37.592;2024-01-06T04:21:34;98873.34;;;-18.84;89.18
35443;BME280;21561;55.654;37.592;2024-01-06T04:24:01;98890.94;;;-18.81;89.12
35443;BME280;21561;55.654;37.592;2024-01-06T04:26:28;98886.75;;;-18.82;89.04
35443;BME280;21561;55.654;37.592;2024-01-06T04:28:55;98883.38;;;-18.82;88.88
35443;BME280;21561;55.654;37.592;2024-01-06T04:31:22;98885.72;;;-18.84;89.05
35443;BME280;21561;55.654;37.592;2024-01-06T04:33:49;98889.78;;;-18.85;89.55
35443;BME280;21561;55.654;37.592;2024-01-06T04:36:16;98875.09;;;-18.83;89.70
35443;BME280;21561;55.654;37.592;2024-01-06T04:38:43;98884.28;;;-18.82;89.50
35443;BME280;21561;55.654;37.592;2024-01-06T04:41:10;98883.22;;;-18.84;89.75
35443;BME280;21561;55.654;37.592;2024-01-06T04:43:37;98879.34;;;-18.82;89.70
35443;BME280;21561;55.654;37.592;2024-01-06T04:46:03;98885.41;;;-18.78;89.69
35443;BME280;21561;55.654;37.592;2024-01-06T04:48:30;98896.16;;;-18.78;89.64
35443;BME280;21561;55.654;37.592;2024-01-06T04:50:58;98891.22;;;-18.78;89.63
35443;BME280;21561;55.654;37.592;2024-01-06T04:53:25;98895.03;;;-18.81;89.25
35443;BME280;21561;55.654;37.592;2024-01-06T04:55:52;98896.50;;;-18.83;89.00
35443;BME280;21561;55.654;37.592;2024-01-06T04:58:18;98894.59;;;-18.86;89.25
35443;BME280;21561;55.654;37.592;2024-01-06T05:00:45;98901.16;;;-18.87;89.26
35443;BME280;21561;55.654;37.592;2024-01-06T05:03:13;98891.84;;;-18.89;88.87
35443;BME280;21561;55.654;37.592;2024-01-06T05:05:40;98901.59;;;-18.91;89.11
35443;BME280;21561;55.654;37.592;2024-01-06T05:08:07;98901.59;;;-18.91;88.84
35443;BME280;21561;55.654;37.592;2024-01-06T05:10:34;98900.28;;;-18.96;89.03
35443;BME280;21561;55.654;37.592;2024-01-06T05:13:00;98902.59;;;-18.97;88.73
35443;BME280;21561;55.654;37.592;2024-01-06T05:15:27;98913.66;;;-18.94;88.86
35443;BME280;21561;55.654;37.592;2024-01-06T05:17:54;98911.78;;;-18.96;88.68
35443;BME280;21561;55.654;37.592;2024-01-06T05:20:22;98902.59;;;-18.97;88.59
35443;BME280;21561;55.654;37.592;2024-01-06T05:22:49;98903.63;;;-18.95;88.83
35443;BME280;21561;55.654;37.592;2024-01-06T05:25:16;98910.47;;;-18.93;88.90
35443;BME280;21561;55.654;37.592;2024-01-06T05:27:43;98906.69;;;-18.89;88.94
35443;BME280;21561;55.654;37.592;2024-01-06T05:30:10;98904.94;;;-18.90;88.81
35443;BME280;21561;55.654;37.592;2024-01-06T05:32:38;98903.16;;;-18.91;89.02
35443;BME280;21561;55.654;37.592;2024-01-06T05:35:05;98911.34;;;-18.92;88.98
35443;BME280;21561;55.654;37.592;2024-01-06T05:37:33;98908.72;;;-18.94;89.24
35443;BME280;21561;55.654;37.592;2024-01-06T05:39:59;98902.59;;;-18.97;88.92
35443;BME280;21561;55.654;37.592;2024-01-06T05:42:29;98907.53;;;-18.97;88.93
35443;BME280;21561;55.654;37.592;2024-01-06T05:44:56;98903.31;;;-18.98;89.13
35443;BME280;21561;55.654;37.592;2024-01-06T05:47:23;98905.78;;;-18.98;89.40
35443;BME280;21561;55.654;37.592;2024-01-06T05:49:50;98896.19;;;-18.95;89.22
35443;BME280;21561;55.654;37.592;2024-01-06T05:52:17;98897.66;;;-18.89;89.33
35443;BME280;21561;55.654;37.592;2024-01-06T05:54:44;98899.53;;;-18.86;89.04
35443;BME280;21561;55.654;37.592;2024-01-06T05:57:11;98904.78;;;-18.83;89.33
35443;BME280;21561;55.654;37.592;2024-01-06T05:59:38;98913.50;;;-18.78;89.36
35443;BME280;21561;55.654;37.592;2024-01-06T06:02:05;98914.34;;;-18.77;89.40
35443;BME280;21561;55.654;37.592;2024-01-06T06:04:33;98917.28;;;-18.73;89.13
35443;BME280;21561;55.654;37.592;2024-01-06T06:07:00;98928.19;;;-18.71;89.04
35443;BME280;21561;55.654;37.592;2024-01-06T06:09:28;98924.69;;;-18.73;89.10
35443;BME280;21561;55.654;37.592;2024-01-06T06:11:55;98932.97;;;-18.72;89.11
35443;BME280;21561;55.654;37.592;2024-01-06T06:14:22;98926.44;;;-18.72;88.92
35443;BME280;21561;55.654;37.592;2024-01-06T06:16:53;98940.13;;;-18.67;89.39
35443;BME280;21561;55.654;37.592;2024-01-06T06:19:20;98940.72;;;-18.60;89.18
35443;BME280;21561;55.654;37.592;2024-01-06T06:21:47;98934.84;;;-18.52;88.95
35443;BME280;21561;55.654;37.592;2024-01-06T06:24:14;98937.78;;;-18.48;89.05
35443;BME280;21561;55.654;37.592;2024-01-06T06:26:41;98945.34;;;-18.46;88.86
35443;BME280;21561;55.654;37.592;2024-01-06T06:29:08;98946.66;;;-18.50;88.64
35443;BME280;21561;55.654;37.592;2024-01-06T06:31:35;98945.22;;;-18.56;88.44
35443;BME280;21561;55.654;37.592;2024-01-06T06:34:02;98947.69;;;-18.56;88.72
35443;BME280;21561;55.654;37.592;2024-01-06T06:36:35;98946.94;;;-18.55;88.71
35443;BME280;21561;55.654;37.592;2024-01-06T06:39:02;98950.88;;;-18.57;89.07
35443;BME280;21561;55.654;37.592;2024-01-06T06:41:30;98945.94;;;-18.57;88.95
35443;BME280;21561;55.654;37.592;2024-01-06T06:43:57;98947.38;;;-18.59;88.63
35443;BME280;21561;55.654;37.592;2024-01-06T06:46:24;98952.78;;;-18.63;88.64
35443;BME280;21561;55.654;37.592;2024-01-06T06:48:51;98954.25;;;-18.66;88.82
35443;BME280;21561;55.654;37.592;2024-01-06T06:51:18;98964.28;;;-18.64;88.78
35443;BME280;21561;55.654;37.592;2024-01-06T06:53:45;98957.00;;;-18.62;88.98
35443;BME280;21561;55.654;37.592;2024-01-06T06:56:16;98956.28;;;-18.61;88.96
35443;BME280;21561;55.654;37.592;2024-01-06T06:58:44;98959.47;;;-18.62;89.03
35443;BME280;21561;55.654;37.592;2024-01-06T07:01:14;98960.22;;;-18.63;88.95
35443;BME280;21561;55.654;37.592;2024-01-06T07:03:42;98950.31;;;-18.63;88.94
35443;BME280;21561;55.654;37.592;2024-01-06T07:06:12;98947.09;;;-18.62;88.85
35443;BME280;21561;55.654;37.592;2024-01-06T07:08:39;98947.09;;;-18.62;88.76
35443;BME280;21561;55.654;37.592;2024-01-06T07:11:08;98959.91;;;-18.58;89.22
35443;BME280;21561;55.654;37.592;2024-01-06T07:13:35;98947.97;;;-18.53;89.22
35443;BME280;21561;55.654;37.592;2024-01-06T07:16:02;98955.66;;;-18.50;88.98
35443;BME280;21561;55.654;37.592;2024-01-06T07:18:43;98961.53;;;-18.50;88.88
35443;BME280;21561;55.654;37.592;2024-01-06T07:21:12;98950.00;;;-18.49;89.00
35443;BME280;21561;55.654;37.592;2024-01-06T07:23:39;98956.13;;;-18.54;88.78
35443;BME280;21561;55.654;37.592;2024-01-06T07:26:06;98950.31;;;-18.55;89.07
35443;BME280;21561;55.654;37.592;2024-01-06T07:28:35;98953.19;;;-18.50;89.14
35443;BME280;21561;55.654;37.592;2024-01-06T07:31:02;98949.72;;;-18.43;89.34
35443;BME280;21561;55.654;37.592;2024-01-06T07:33:29;98958.16;;;-18.41;89.15
35443;BME280;21561;55.654;37.592;2024-01-06T07:35:56;98976.78;;;-18.45;88.92
35443;BME280;21561;55.654;37.592;2024-01-06T07:38:23;98969.38;;;-18.45;89.02
35443;BME280;21561;55.654;37.592;2024-01-06T07:40:50;98973.59;;;-18.44;88.87
35443;BME280;21561;55.654;37.592;2024-01-06T07:43:17;98967.19;;;-18.42;89.25
35443;BME280;21561;55.654;37.592;2024-01-06T07:45:44;98974.75;;;-18.40;89.09
35443;BME280;21561;55.654;37.592;2024-01-06T07:48:11;98965.72;;;-18.40;89.05
35443;BME280;21561;55.654;37.592;2024-01-06T07:50:38;98968.50;;;-18.37;89.16
35443;BME280;21561;55.654;37.592;2024-01-06T07:53:05;98954.94;;;-18.32;89.26
35443;BME280;21561;55.654;37.592;2024-01-06T07:55:32;98961.47;;;-18.23;89.35
35443;BME280;21561;55.654;37.592;2024-01-06T07:57:59;98953.16;;;-18.15;89.46
35443;BME280;21561;55.654;37.592;2024-01-06T08:00:26;98949.38;;;-18.12;89.48
35443;BME280;21561;55.654;37.592;2024-01-06T08:02:53;98949.78;;;-18.07;89.26
35443;BME280;21561;55.654;37.592;2024-01-06T08:05:20;98951.09;;;-18.02;89.18
35443;BME280;21561;55.654;37.592;2024-01-06T08:07:47;98939.00;;;-17.99;89.07
35443;BME280;21561;55.654;37.592;2024-01-06T08:10:14;98931.53;;;-17.90;89.28
35443;BME280;21561;55.654;37.592;2024-01-06T08:12:41;98935.53;;;-17.82;89.28
35443;BME280;21561;55.654;37.592;2024-01-06T08:15:08;98934.03;;;-17.71;89.44
35443;BME280;21561;55.654;37.592;2024-01-06T08:17:36;98931.97;;;-17.58;89.65
35443;BME280;21561;55.654;37.592;2024-01-06T08:20:04;98935.69;;;-17.44;89.64
35443;BME280;21561;55.654;37.592;2024-01-06T08:22:31;98932.41;;;-17.34;89.48
35443;BME280;21561;55.654;37.592;2024-01-06T08:24:58;98931.50;;;-17.26;89.33
35443;BME280;21561;55.654;37.592;2024-01-06T08:27:25;98922.41;;;-17.17;89.37
35443;BME280;21561;55.654;37.592;2024-01-06T08:29:52;98918.84;;;-17.10;89.13
35443;BME280;21561;55.654;37.592;2024-01-06T08:32:19;98921.72;;;-17.05;88.80
35443;BME280;21561;55.654;37.592;2024-01-06T08:34:46;98928.44;;;-17.04;88.71
35443;BME280;21561;55.654;37.592;2024-01-06T08:37:14;98934.88;;;-17.06;88.34
35443;BME280;21561;55.654;37.592;2024-01-06T08:39:41;98937.34;;;-17.06;88.30
35443;BME280;21561;55.654;37.592;2024-01-06T08:42:08;98943.06;;;-17.07;87.95
35443;BME280;21561;55.654;37.592;2024-01-06T08:44:35;98945.41;;;-17.09;88.52
35443;BME280;21561;55.654;37.592;2024-01-06T08:47:02;98940.44;;;-17.09;88.45
35443;BME280;21561;55.654;37.592;2024-01-06T08:49:29;98926.09;;;-17.03;88.96
35443;BME280;21561;55.654;37.592;2024-01-06T08:51:57;98931.25;;;-16.91;89.14
35443;BME280;21561;55.654;37.592;2024-01-06T08:54:24;98930.56;;;-16.80;89.04
35443;BME280;21561;55.654;37.592;2024-01-06T08:56:51;98936.06;;;-16.74;88.81
35443;BME280;21561;55.654;37.592;2024-01-06T08:59:18;98936.22;;;-16.72;88.22
35443;BME280;21561;55.654;37.592;2024-01-06T09:01:46;98927.88;;;-16.73;88.08
35443;BME280;21561;55.654;37.592;2024-01-06T09:04:16;98918.22;;;-16.69;88.15
35443;BME280;21561;55.654;37.592;2024-01-06T09:06:43;98914.53;;;-16.64;88.54
35443;BME280;21561;55.654;37.592;2024-01-06T09:09:10;98911.84;;;-16.57;88.77
35443;BME280;21561;55.654;37.592;2024-01-06T09:11:37;98907.78;;;-16.46;88.71
35443;BME280;21561;55.654;37.592;2024-01-06T09:14:04;98905.69;;;-16.42;88.18
35443;BME280;21561;55.654;37.592;2024-01-06T09:16:31;98907.09;;;-16.35;88.52
35443;BME280;21561;55.654;37.592;2024-01-06T09:18:58;98905.88;;;-16.30;88.42
35443;BME280;21561;55.654;37.592;2024-01-06T09:21:25;98908.50;;;-16.28;87.71
35443;BME280;21561;55.654;37.592;2024-01-06T09:23:52;98913.19;;;-16.31;87.28
35443;BME280;21561;55.654;37.592;2024-01-06T09:26:19;98907.38;;;-16.32;87.54
35443;BME280;21561;55.654;37.592;2024-01-06T09:28:46;98903.25;;;-16.31;87.52
35443;BME280;21561;55.654;37.592;2024-01-06T09:31:14;98896.81;;;-16.29;87.54
35443;BME280;21561;55.654;37.592;2024-01-06T09:33:41;98898.06;;;-16.24;87.83
35443;BME280;21561;55.654;37.592;2024-01-06T09:36:08;98894.88;;;-16.13;88.12
35443;BME280;21561;55.654;37.592;2024-01-06T09:38:39;98892.44;;;-16.03;87.92
35443;BME280;21561;55.654;37.592;2024-01-06T09:41:05;98895.91;;;-16.01;87.87
35443;BME280;21561;55.654;37.592;2024-01-06T09:43:32;98899.41;;;-15.99;87.36
35443;BME280;21561;55.654;37.592;2024-01-06T09:46:11;98898.53;;;-15.99;87.02
35443;BME280;21561;55.654;37.592;2024-01-06T09:48:41;98887.69;;;-16.10;86.84
35443;BME280;21561;55.654;37.592;2024-01-06T09:51:11;98896.13;;;-16.18;86.74
35443;BME280;21561;55.654;37.592;2024-01-06T09:54:06;98897.84;;;-16.17;86.96
35443;BME280;21561;55.654;37.592;2024-01-06T09:56:35;98896.13;;;-16.18;87.69
35443;BME280;21561;55.654;37.592;2024-01-06T09:59:02;98892.16;;;-16.16;88.16
35443;BME280;21561;55.654;37.592;2024-01-06T10:01:29;98896.38;;;-16.15;87.65
35443;BME280;21561;55.654;37.592;2024-01-06T10:03:56;98897.84;;;-16.17;87.47
35443;BME280;21561;55.654;37.592;2024-01-06T10:06:23;98890.53;;;-16.16;87.53
35443;BME280;21561;55.654;37.592;2024-01-06T10:08:51;98889.66;;;-16.16;87.51
35443;BME280;21561;55.654;37.592;2024-01-06T10:11:19;98893.41;;;-16.11;87.89
35443;BME280;21561;55.654;37.592;2024-01-06T10:13:51;98886.97;;;-16.09;87.92
35443;BME280;21561;55.654;37.592;2024-01-06T10:16:20;98873.53;;;-16.11;87.42
35443;BME280;21561;55.654;37.592;2024-01-06T10:18:47;98882.84;;;-16.08;88.00
35443;BME280;21561;55.654;37.592;2024-01-06T10:21:24;98878.66;;;-15.99;88.29
35443;BME280;21561;55.654;37.592;2024-01-06T10:23:54;98877.91;;;-15.88;88.22
35443;BME280;21561;55.654;37.592;2024-01-06T10:26:21;98869.09;;;-15.84;87.75
35443;BME280;21561;55.654;37.592;2024-01-06T10:28:48;98868.63;;;-15.80;88.07
35443;BME280;21561;55.654;37.592;2024-01-06T10:31:17;98868.38;;;-15.73;88.12
35443;BME280;21561;55.654;37.592;2024-01-06T10:33:45;98870.75;;;-15.64;88.06
35443;BME280;21561;55.654;37.592;2024-01-06T10:36:12;98863.66;;;-15.60;87.57
35443;BME280;21561;55.654;37.592;2024-01-06T10:38:40;98861.41;;;-15.57;87.49
35443;BME280;21561;55.654;37.592;2024-01-06T10:41:07;98849.38;;;-15.52;87.65
35443;BME280;21561;55.654;37.592;2024-01-06T10:43:37;98845.53;;;-15.48;87.79
35443;BME280;21561;55.654;37.592;2024-01-06T10:46:08;98843.13;;;-15.47;87.45
35443;BME280;21561;55.654;37.592;2024-01-06T10:48:39;98849.00;;;-15.46;87.31
35443;BME280;21561;55.654;37.592;2024-01-06T10:51:12;98842.25;;;-15.47;86.80
35443;BME280;21561;55.654;37.592;2024-01-06T10:53:41;98846.00;;;-15.42;87.55
35443;BME280;21561;55.654;37.592;2024-01-06T10:56:09;98845.88;;;-15.33;87.54
35443;BME280;21561;55.654;37.592;2024-01-06T10:58:45;98850.22;;;-15.21;87.50
35443;BME280;21561;55.654;37.592;2024-01-06T11:01:14;98845.72;;;-15.14;87.29
35443;BME280;21561;55.654;37.592;2024-01-06T11:03:48;98837.25;;;-15.06;87.50
35443;BME280;21561;55.654;37.592;2024-01-06T11:06:17;98836.63;;;-15.04;87.21
35443;BME280;21561;55.654;37.592;2024-01-06T11:08:53;98834.50;;;-14.99;87.19
35443;BME280;21561;55.654;37.592;2024-01-06T11:11:22;98846.22;;;-14.98;87.45
35443;BME280;21561;55.654;37.592;2024-01-06T11:13:50;98833.50;;;-14.91;87.51
35443;BME280;21561;55.654;37.592;2024-01-06T11:16:36;98837.72;;;-14.80;87.72
35443;BME280;21561;55.654;37.592;2024-01-06T11:22:26;98838.09;;;-14.85;87.57
35443;BME280;21561;55.654;37.592;2024-01-06T11:25:03;98833.50;;;-14.91;87.61
35443;BME280;21561;55.654;37.592;2024-01-06T11:27:31;98836.75;;;-14.92;87.16
35443;BME280;21561;55.654;37.592;2024-01-06T11:30:00;98840.22;;;-14.90;87.25
35443;BME280;21561;55.654;37.592;2024-01-06T11:32:32;98837.00;;;-14.89;87.51
35443;BME280;21561;55.654;37.592;2024-01-06T11:35:14;98838.97;;;-14.85;87.39
35443;BME280;21561;55.654;37.592;2024-01-06T11:42:48;98853.69;;;-15.08;86.53
35443;BME280;21561;55.654;37.592;2024-01-06T11:45:15;98848.47;;;-15.11;87.14
35443;BME280;21561;55.654;37.592;2024-01-06T11:47:47;98847.22;;;-15.06;87.35
35443;BME280;21561;55.654;37.592;2024-01-06T11:50:15;98854.81;;;-15.05;87.84
35443;BME280;21561;55.654;37.592;2024-01-06T11:52:42;98858.94;;;-15.05;87.93
35443;BME280;21561;55.654;37.592;2024-01-06T11:55:09;98870.00;;;-15.02;88.07
35443;BME280;21561;55.654;37.592;2024-01-06T11:57:36;98862.63;;;-15.00;87.66
35443;BME280;21561;55.654;37.592;2024-01-06T12:00:05;98871.97;;;-14.97;87.50
35443;BME280;21561;55.654;37.592;2024-01-06T12:02:33;98867.13;;;-14.96;87.85
35443;BME280;21561;55.654;37.592;2024-01-06T12:05:00;98866.50;;;-14.93;87.69
35443;BME280;21561;55.654;37.592;2024-01-06T12:07:29;98869.84;;;-14.93;87.45
35443;BME280;21561;55.654;37.592;2024-01-06T12:10:02;98865.75;;;-14.92;87.86
35443;BME280;21561;55.654;37.592;2024-01-06T12:12:31;98868.38;;;-14.91;88.05
35443;BME280;21561;55.654;37.592;2024-01-06T12:14:59;98875.72;;;-14.92;87.86
35443;BME280;21561;55.654;37.592;2024-01-06T12:17:29;98870.94;;;-14.89;88.30
35443;BME280;21561;55.654;37.592;2024-01-06T12:19:57;98874.06;;;-14.82;88.20
35443;BME280;21561;55.654;37.592;2024-01-06T12:22:24;98876.81;;;-14.89;87.96
35443;BME280;21561;55.654;37.592;2024-01-06T12:24:51;98874.09;;;-14.92;88.09
35443;BME280;21561;55.654;37.592;2024-01-06T12:27:18;98875.06;;;-14.90;88.16
35443;BME280;21561;55.654;37.592;2024-01-06T12:29:48;98873.34;;;-14.91;87.96
35443;BME280;21561;55.654;37.592;2024-01-06T12:32:15;98869.84;;;-14.93;87.96
35443;BME280;21561;55.654;37.592;2024-01-06T12:34:42;98873.97;;;-14.93;88.14
35443;BME280;21561;55.654;37.592;2024-01-06T12:37:09;98880.56;;;-14.94;88.11
35443;BME280;21561;55.654;37.592;2024-01-06T12:39:36;98885.81;;;-15.01;87.79
35443;BME280;21561;55.654;37.592;2024-01-06T12:42:03;98883.56;;;-15.08;88.01
35443;BME280;21561;55.654;37.592;2024-01-06T12:44:30;98886.06;;;-15.08;88.38
35443;BME280;21561;55.654;37.592;2024-01-06T12:47:00;98886.06;;;-15.08;88.48
35443;BME280;21561;55.654;37.592;2024-01-06T12:49:27;98887.78;;;-15.07;88.75
35443;BME280;21561;55.654;37.592;2024-01-06T12:51:54;98879.72;;;-15.05;88.76